This is the latest recevied weather packets stored in our database for station/object N8TWM-13. If no packets are shown the sender has not sent any weather packets the latest 10 day(s).
| Time | Temp. | Humidity | Pressure | Rain* | Wind** | Luminosity | Snow |
|---|---|---|---|---|---|---|---|
| 1777922028 | 22.22° C | 56% | 1006.2 hPa | 0 mm | - | 415 W/m² | - |
| 1777921724 | 22.22° C | 55% | 1006.3 hPa | 0 mm | - | 275 W/m² | - |
| 1777921419 | 22.22° C | 54% | 1006.4 hPa | 0 mm | - | 699 W/m² | - |
| 1777921116 | 22.22° C | 54% | 1006.4 hPa | 0 mm | - | 599 W/m² | - |
| 1777920813 | 21.67° C | 55% | 1006.3 hPa | 0 mm | - | 674 W/m² | - |
| 1777920509 | 22.22° C | 54% | 1006.4 hPa | 0 mm | - | 691 W/m² | - |
| 1777920206 | 21.67° C | 57% | 1006.6 hPa | 0 mm | - | 673 W/m² | - |
| 1777919901 | 21.67° C | 56% | 1006.6 hPa | 0 mm | - | 563 W/m² | - |
| 1777919599 | 21.11° C | 55% | 1006.5 hPa | 0 mm | - | 685 W/m² | - |
| 1777919297 | 21.67° C | 55% | 1006.9 hPa | 0 mm | - | 693 W/m² | - |
| 1777918994 | 21.11° C | 57% | 1007 hPa | 0 mm | - | 677 W/m² | - |
| 1777918691 | 21.11° C | 57% | 1006.8 hPa | 0 mm | - | 699 W/m² | - |
| 1777918388 | 21.11° C | 57% | 1006.9 hPa | 0 mm | - | 704 W/m² | - |
| 1777918087 | 21.11° C | 57% | 1006.9 hPa | 0 mm | - | 620 W/m² | - |
| 1777917785 | 20.56° C | 58% | 1006.8 hPa | 0 mm | - | 462 W/m² | - |
| 1777917483 | 20.56° C | 59% | 1006.7 hPa | 0 mm | - | 698 W/m² | - |
| 1777917179 | 20.56° C | 58% | 1006.7 hPa | 0 mm | - | 698 W/m² | - |
| 1777916877 | 20.56° C | 59% | 1006.8 hPa | 0 mm | - | 675 W/m² | - |
| 1777916575 | 20.56° C | 59% | 1007 hPa | 0 mm | - | 687 W/m² | - |
| 1777916271 | 20° C | 59% | 1007 hPa | 0 mm | - | 81 W/m² | - |
| 1777915968 | 19.44° C | 59% | 1007.4 hPa | 0 mm | - | 81 W/m² | - |
| 1777915665 | 19.44° C | 60% | 1007.5 hPa | 0 mm | - | 83 W/m² | - |
| 1777915362 | 20° C | 58% | 1007.4 hPa | 0 mm | - | 83 W/m² | - |
| 1777915058 | 19.44° C | 60% | 1007.2 hPa | 0 mm | - | 80 W/m² | - |
| 1777914755 | 19.44° C | 59% | 1007.2 hPa | 0 mm | - | 88 W/m² | - |
* Rain latest hour (hover to see other rain measurements)
** Current wind speed in m/s (hover to see current wind gust speed)